River Of Ponds, Canada
Current Conditions -  °F | °C
As of 9:00 AM on Monday 24 Nov 2014 (Local Time) from CWDH Reporting Station
Clear Clear  
Wind Chill: 17°   Ceiling: Unl
Heat Index: 27°   Visibility: 9mi
Dew Point: 11°   Wind: 9mph
Humidity: 52%   Direction: 280°W
Pressure: 30.23"   Gusts: NA
Location:  50.53°N, 57.38°W
Report Text: CWDH 241200Z AUTO 28008KT 9SM NSC M03/M12 A3023 RMK SLP237 T10301116 11029 21038 WSI/SWOB
Loading
Personal Weather Stations






























Interactive Weather Map New forecast layout! Learn more

10-Day Weather Forecast

Advertisements
Track Severe Weather on mobile